sensor_id;sensor_type;location;lat;lon;timestamp;pressure;altitude;pressure_sealevel;temperature;humidity
51759;BME280;66684;47.568;18.734;2023-03-01T00:01:25;100510.69;;;3.10;87.08
51759;BME280;66684;47.568;18.734;2023-03-01T00:03:51;100517.31;;;3.18;86.85
51759;BME280;66684;47.568;18.734;2023-03-01T00:06:18;100518.59;;;3.13;86.22
51759;BME280;66684;47.568;18.734;2023-03-01T00:08:44;100519.63;;;3.05;86.49
51759;BME280;66684;47.568;18.734;2023-03-01T00:13:47;100517.97;;;3.16;85.92
51759;BME280;66684;47.568;18.734;2023-03-01T00:16:16;100515.78;;;3.20;85.77
51759;BME280;66684;47.568;18.734;2023-03-01T00:18:42;100513.38;;;3.32;85.58
51759;BME280;66684;47.568;18.734;2023-03-01T00:21:08;100509.69;;;3.29;85.48
51759;BME280;66684;47.568;18.734;2023-03-01T00:23:35;100512.88;;;3.36;85.04
51759;BME280;66684;47.568;18.734;2023-03-01T00:26:01;100518.63;;;3.34;84.16
51759;BME280;66684;47.568;18.734;2023-03-01T00:28:27;100520.41;;;3.35;84.24
51759;BME280;66684;47.568;18.734;2023-03-01T00:30:53;100518.87;;;3.37;84.10
51759;BME280;66684;47.568;18.734;2023-03-01T00:33:19;100516.31;;;3.47;83.55
51759;BME280;66684;47.568;18.734;2023-03-01T00:35:45;100519.91;;;3.29;83.97
51759;BME280;66684;47.568;18.734;2023-03-01T00:38:11;100523.69;;;3.13;86.83
51759;BME280;66684;47.568;18.734;2023-03-01T00:40:37;100523.22;;;3.28;85.82
51759;BME280;66684;47.568;18.734;2023-03-01T00:43:03;100522.19;;;3.15;86.03
51759;BME280;66684;47.568;18.734;2023-03-01T00:45:29;100517.75;;;3.33;83.83
51759;BME280;66684;47.568;18.734;2023-03-01T00:47:56;100521.19;;;3.34;83.90
51759;BME280;66684;47.568;18.734;2023-03-01T00:50:23;100515.94;;;3.22;83.88
51759;BME280;66684;47.568;18.734;2023-03-01T00:52:55;100524.72;;;3.25;85.01
51759;BME280;66684;47.568;18.734;2023-03-01T00:55:22;100516.31;;;3.37;83.73
51759;BME280;66684;47.568;18.734;2023-03-01T00:57:48;100512.72;;;3.45;82.81
51759;BME280;66684;47.568;18.734;2023-03-01T01:00:14;100512.72;;;3.45;82.67
51759;BME280;66684;47.568;18.734;2023-03-01T01:02:40;100509.66;;;3.39;82.17
51759;BME280;66684;47.568;18.734;2023-03-01T01:05:07;100509.16;;;3.22;82.59
51759;BME280;66684;47.568;18.734;2023-03-01T01:07:33;100517.84;;;3.24;83.49
51759;BME280;66684;47.568;18.734;2023-03-01T01:09:59;100504.31;;;3.25;83.64
51759;BME280;66684;47.568;18.734;2023-03-01T01:12:25;100497.91;;;3.31;82.80
51759;BME280;66684;47.568;18.734;2023-03-01T01:14:50;100500.97;;;3.27;83.12
51759;BME280;66684;47.568;18.734;2023-03-01T01:17:16;100499.06;;;3.14;84.04
51759;BME280;66684;47.568;18.734;2023-03-01T01:19:42;100497.16;;;3.21;84.29
51759;BME280;66684;47.568;18.734;2023-03-01T01:22:09;100497.78;;;3.39;84.74
51759;BME280;66684;47.568;18.734;2023-03-01T01:24:35;100499.94;;;3.45;85.39
51759;BME280;66684;47.568;18.734;2023-03-01T01:27:00;100495.84;;;3.57;84.94
51759;BME280;66684;47.568;18.734;2023-03-01T01:29:26;100494.84;;;3.55;84.77
51759;BME280;66684;47.568;18.734;2023-03-01T01:31:52;100493.06;;;3.54;86.07
51759;BME280;66684;47.568;18.734;2023-03-01T01:34:20;100483.59;;;3.63;86.47
51759;BME280;66684;47.568;18.734;2023-03-01T01:36:52;100475.41;;;3.67;86.58
51759;BME280;66684;47.568;18.734;2023-03-01T01:39:21;100476.97;;;3.65;85.35
51759;BME280;66684;47.568;18.734;2023-03-01T01:41:48;100470.03;;;3.64;85.87
51759;BME280;66684;47.568;18.734;2023-03-01T01:44:25;100472.06;;;3.68;85.96
51759;BME280;66684;47.568;18.734;2023-03-01T01:47:17;100462.41;;;3.54;85.42
51759;BME280;66684;47.568;18.734;2023-03-01T01:52:32;100467.50;;;3.54;87.01
51759;BME280;66684;47.568;18.734;2023-03-01T01:55:08;100461.91;;;3.48;87.24
51759;BME280;66684;47.568;18.734;2023-03-01T01:57:42;100460.09;;;3.57;86.70
51759;BME280;66684;47.568;18.734;2023-03-01T02:00:16;100465.47;;;3.60;85.60
51759;BME280;66684;47.568;18.734;2023-03-01T02:02:44;100460.13;;;3.47;88.46
51759;BME280;66684;47.568;18.734;2023-03-01T02:05:18;100459.62;;;3.41;89.30
51759;BME280;66684;47.568;18.734;2023-03-01T02:07:47;100460.34;;;3.50;88.79
51759;BME280;66684;47.568;18.734;2023-03-01T02:10:14;100459.62;;;3.41;89.11
51759;BME280;66684;47.568;18.734;2023-03-01T02:12:41;100454.13;;;3.46;89.23
51759;BME280;66684;47.568;18.734;2023-03-01T02:15:07;100464.97;;;3.44;89.69
51759;BME280;66684;47.568;18.734;2023-03-01T02:17:33;100454.25;;;3.38;90.79
51759;BME280;66684;47.568;18.734;2023-03-01T02:22:38;100446.31;;;3.45;90.43
51759;BME280;66684;47.568;18.734;2023-03-01T02:30:46;100439.28;;;3.53;90.58
51759;BME280;66684;47.568;18.734;2023-03-01T02:33:34;100439.41;;;3.44;91.36
51759;BME280;66684;47.568;18.734;2023-03-01T02:36:08;100436.63;;;3.41;92.14
51759;BME280;66684;47.568;18.734;2023-03-01T02:38:35;100437.41;;;3.40;92.64
51759;BME280;66684;47.568;18.734;2023-03-01T02:41:02;100428.69;;;3.38;92.88
51759;BME280;66684;47.568;18.734;2023-03-01T02:43:31;100422.34;;;3.12;93.85
51759;BME280;66684;47.568;18.734;2023-03-01T02:46:05;100429.38;;;3.15;93.77
51759;BME280;66684;47.568;18.734;2023-03-01T02:48:52;100419.00;;;3.23;94.30
51759;BME280;66684;47.568;18.734;2023-03-01T02:51:48;100424.88;;;3.33;93.32
51759;BME280;66684;47.568;18.734;2023-03-01T02:56:47;100423.09;;;3.32;94.77
51759;BME280;66684;47.568;18.734;2023-03-01T02:59:18;100417.75;;;3.29;95.40
51759;BME280;66684;47.568;18.734;2023-03-01T03:01:45;100409.56;;;3.12;97.13
51759;BME280;66684;47.568;18.734;2023-03-01T03:04:15;100411.97;;;3.31;95.64
51759;BME280;66684;47.568;18.734;2023-03-01T03:06:48;100404.19;;;3.30;94.39
51759;BME280;66684;47.568;18.734;2023-03-01T03:09:15;100400.63;;;3.17;94.58
51759;BME280;66684;47.568;18.734;2023-03-01T03:11:41;100406.37;;;2.94;96.26
51759;BME280;66684;47.568;18.734;2023-03-01T03:14:10;100393.75;;;3.06;96.59
51759;BME280;66684;47.568;18.734;2023-03-01T03:16:42;100397.72;;;3.03;96.74
51759;BME280;66684;47.568;18.734;2023-03-01T03:19:08;100404.22;;;2.89;97.52
51759;BME280;66684;47.568;18.734;2023-03-01T03:21:35;100398.59;;;2.93;97.21
51759;BME280;66684;47.568;18.734;2023-03-01T03:24:01;100402.44;;;2.88;97.39
51759;BME280;66684;47.568;18.734;2023-03-01T03:26:27;100397.31;;;2.88;97.69
51759;BME280;66684;47.568;18.734;2023-03-01T03:28:53;100395.53;;;2.87;97.87
51759;BME280;66684;47.568;18.734;2023-03-01T03:31:19;100392.50;;;2.70;99.04
51759;BME280;66684;47.568;18.734;2023-03-01T03:33:45;100387.91;;;2.77;98.20
51759;BME280;66684;47.568;18.734;2023-03-01T03:36:22;100390.31;;;2.75;98.04
51759;BME280;66684;47.568;18.734;2023-03-01T03:38:48;100386.09;;;2.76;99.29
51759;BME280;66684;47.568;18.734;2023-03-01T03:41:15;100391.19;;;2.76;99.00
51759;BME280;66684;47.568;18.734;2023-03-01T03:43:42;100391.19;;;2.76;99.02
51759;BME280;66684;47.568;18.734;2023-03-01T03:46:10;100386.84;;;2.75;99.15
51759;BME280;66684;47.568;18.734;2023-03-01T03:48:42;100398.22;;;2.68;99.65
51759;BME280;66684;47.568;18.734;2023-03-01T03:51:13;100399.34;;;2.61;100.00
51759;BME280;66684;47.568;18.734;2023-03-01T03:53:40;100395.66;;;2.58;100.00
51759;BME280;66684;47.568;18.734;2023-03-01T03:56:06;100389.91;;;2.60;100.00
51759;BME280;66684;47.568;18.734;2023-03-01T03:58:32;100396.56;;;2.58;100.00
51759;BME280;66684;47.568;18.734;2023-03-01T04:00:59;100396.03;;;2.52;100.00
51759;BME280;66684;47.568;18.734;2023-03-01T04:03:27;100397.97;;;2.65;100.00
51759;BME280;66684;47.568;18.734;2023-03-01T04:05:54;100393.63;;;2.74;100.00
51759;BME280;66684;47.568;18.734;2023-03-01T04:08:21;100395.91;;;2.81;100.00
51759;BME280;66684;47.568;18.734;2023-03-01T04:10:50;100398.88;;;2.86;100.00
51759;BME280;66684;47.568;18.734;2023-03-01T04:13:18;100395.16;;;2.82;100.00
51759;BME280;66684;47.568;18.734;2023-03-01T04:15:49;100394.78;;;2.98;100.00
51759;BME280;66684;47.568;18.734;2023-03-01T04:18:17;100392.47;;;3.01;100.00
51759;BME280;66684;47.568;18.734;2023-03-01T04:20:44;100396.56;;;2.99;100.00
51759;BME280;66684;47.568;18.734;2023-03-01T04:23:16;100389.78;;;3.10;100.00
51759;BME280;66684;47.568;18.734;2023-03-01T04:25:57;100394.00;;;3.09;100.00
51759;BME280;66684;47.568;18.734;2023-03-01T04:30:51;100408.03;;;2.74;100.00
51759;BME280;66684;47.568;18.734;2023-03-01T04:33:17;100410.03;;;2.37;100.00
51759;BME280;66684;47.568;18.734;2023-03-01T04:35:43;100400.38;;;2.63;100.00
51759;BME280;66684;47.568;18.734;2023-03-01T04:38:09;100400.13;;;2.81;100.00
51759;BME280;66684;47.568;18.734;2023-03-01T04:40:36;100399.37;;;2.92;100.00
51759;BME280;66684;47.568;18.734;2023-03-01T04:43:03;100405.88;;;2.98;100.00
51759;BME280;66684;47.568;18.734;2023-03-01T04:45:29;100400.63;;;3.07;100.00
51759;BME280;66684;47.568;18.734;2023-03-01T04:47:55;100399.63;;;3.05;99.91
51759;BME280;66684;47.568;18.734;2023-03-01T04:50:24;100391.47;;;3.09;100.00
51759;BME280;66684;47.568;18.734;2023-03-01T04:52:51;100393.47;;;3.13;99.78
51759;BME280;66684;47.568;18.734;2023-03-01T04:55:18;100389.16;;;3.12;99.57
51759;BME280;66684;47.568;18.734;2023-03-01T04:57:44;100391.69;;;3.12;99.39
51759;BME280;66684;47.568;18.734;2023-03-01T05:00:12;100390.41;;;3.07;99.50
51759;BME280;66684;47.568;18.734;2023-03-01T05:02:59;100386.50;;;2.90;100.00
51759;BME280;66684;47.568;18.734;2023-03-01T05:05:31;100385.09;;;2.74;100.00
51759;BME280;66684;47.568;18.734;2023-03-01T05:08:00;100389.44;;;2.85;100.00
51759;BME280;66684;47.568;18.734;2023-03-01T05:10:28;100387.88;;;2.66;100.00
51759;BME280;66684;47.568;18.734;2023-03-01T05:12:58;100384.72;;;2.89;100.00
51759;BME280;66684;47.568;18.734;2023-03-01T05:15:29;100388.12;;;3.00;100.00
51759;BME280;66684;47.568;18.734;2023-03-01T05:17:57;100385.59;;;3.10;100.00
51759;BME280;66684;47.568;18.734;2023-03-01T05:20:28;100388.25;;;3.12;100.00
51759;BME280;66684;47.568;18.734;2023-03-01T05:22:57;100393.13;;;2.98;100.00
51759;BME280;66684;47.568;18.734;2023-03-01T05:25:24;100389.41;;;2.95;100.00
51759;BME280;66684;47.568;18.734;2023-03-01T05:27:50;100391.06;;;3.05;99.16
51759;BME280;66684;47.568;18.734;2023-03-01T05:30:17;100385.22;;;2.95;99.95
51759;BME280;66684;47.568;18.734;2023-03-01T05:32:46;100394.16;;;2.90;100.00
51759;BME280;66684;47.568;18.734;2023-03-01T05:35:14;100397.56;;;2.60;100.00
51759;BME280;66684;47.568;18.734;2023-03-01T05:37:42;100390.41;;;2.56;100.00
51759;BME280;66684;47.568;18.734;2023-03-01T05:40:13;100398.06;;;2.56;100.00
51759;BME280;66684;47.568;18.734;2023-03-01T05:42:47;100398.88;;;2.65;100.00
51759;BME280;66684;47.568;18.734;2023-03-01T05:45:14;100394.25;;;2.82;100.00
51759;BME280;66684;47.568;18.734;2023-03-01T05:47:41;100398.47;;;2.91;99.35
51759;BME280;66684;47.568;18.734;2023-03-01T05:50:16;100401.91;;;2.82;99.85
51759;BME280;66684;47.568;18.734;2023-03-01T05:52:49;100400.63;;;3.07;98.55
51759;BME280;66684;47.568;18.734;2023-03-01T05:55:18;100403.31;;;2.98;98.60
51759;BME280;66684;47.568;18.734;2023-03-01T05:57:45;100399.22;;;2.70;100.00
51759;BME280;66684;47.568;18.734;2023-03-01T06:00:13;100398.12;;;2.77;99.74
51759;BME280;66684;47.568;18.734;2023-03-01T06:02:40;100410.09;;;2.78;100.00
51759;BME280;66684;47.568;18.734;2023-03-01T06:05:08;100397.59;;;2.91;99.83
51759;BME280;66684;47.568;18.734;2023-03-01T06:07:34;100392.22;;;2.98;99.69
51759;BME280;66684;47.568;18.734;2023-03-01T06:10:02;100398.88;;;2.86;100.00
51759;BME280;66684;47.568;18.734;2023-03-01T06:12:32;100398.22;;;2.88;99.76
51759;BME280;66684;47.568;18.734;2023-03-01T06:14:59;100406.41;;;2.84;100.00
51759;BME280;66684;47.568;18.734;2023-03-01T06:17:25;100408.19;;;2.95;99.71
51759;BME280;66684;47.568;18.734;2023-03-01T06:19:51;100409.72;;;2.93;99.59
51759;BME280;66684;47.568;18.734;2023-03-01T06:22:17;100414.69;;;3.02;99.62
51759;BME280;66684;47.568;18.734;2023-03-01T06:24:43;100415.22;;;3.08;99.15
51759;BME280;66684;47.568;18.734;2023-03-01T06:27:09;100415.19;;;2.98;99.85
51759;BME280;66684;47.568;18.734;2023-03-01T06:29:35;100413.66;;;3.00;99.33
51759;BME280;66684;47.568;18.734;2023-03-01T06:32:02;100413.41;;;2.97;99.58
51759;BME280;66684;47.568;18.734;2023-03-01T06:34:28;100411.38;;;3.03;99.71
51759;BME280;66684;47.568;18.734;2023-03-01T06:36:54;100410.47;;;2.92;99.91
51759;BME280;66684;47.568;18.734;2023-03-01T06:39:20;100418.66;;;2.98;99.62
51759;BME280;66684;47.568;18.734;2023-03-01T06:41:46;100427.72;;;3.05;99.02
51759;BME280;66684;47.568;18.734;2023-03-01T06:44:12;100422.88;;;3.08;98.11
51759;BME280;66684;47.568;18.734;2023-03-01T06:46:39;100422.09;;;3.09;98.01
51759;BME280;66684;47.568;18.734;2023-03-01T06:49:06;100422.88;;;3.08;97.70
51759;BME280;66684;47.568;18.734;2023-03-01T06:51:36;100418.66;;;3.09;98.00
51759;BME280;66684;47.568;18.734;2023-03-01T06:54:06;100426.44;;;3.10;99.01
51759;BME280;66684;47.568;18.734;2023-03-01T06:56:32;100428.88;;;3.09;98.11
51759;BME280;66684;47.568;18.734;2023-03-01T06:58:58;100427.69;;;3.25;97.06
51759;BME280;66684;47.568;18.734;2023-03-01T07:01:24;100423.34;;;3.35;96.72
51759;BME280;66684;47.568;18.734;2023-03-01T07:03:50;100432.00;;;3.47;95.10
51759;BME280;66684;47.568;18.734;2023-03-01T07:06:16;100429.72;;;3.30;95.40
51759;BME280;66684;47.568;18.734;2023-03-01T07:08:43;100436.87;;;3.13;96.24
51759;BME280;66684;47.568;18.734;2023-03-01T07:11:09;100430.00;;;3.12;95.67
51759;BME280;66684;47.568;18.734;2023-03-01T07:13:35;100429.47;;;3.27;94.94
51759;BME280;66684;47.568;18.734;2023-03-01T07:16:01;100425.62;;;3.42;94.17
51759;BME280;66684;47.568;18.734;2023-03-01T07:18:27;100420.25;;;3.39;93.85
51759;BME280;66684;47.568;18.734;2023-03-01T07:20:53;100428.19;;;3.42;93.68
51759;BME280;66684;47.568;18.734;2023-03-01T07:23:18;100439.44;;;3.23;94.04
51759;BME280;66684;47.568;18.734;2023-03-01T07:25:51;100434.06;;;3.31;94.12
51759;BME280;66684;47.568;18.734;2023-03-01T07:28:17;100425.91;;;3.24;95.22
51759;BME280;66684;47.568;18.734;2023-03-01T07:30:43;100433.03;;;3.39;94.32
51759;BME280;66684;47.568;18.734;2023-03-01T07:33:09;100435.84;;;3.52;94.11
51759;BME280;66684;47.568;18.734;2023-03-01T07:35:35;100429.69;;;3.50;93.99
51759;BME280;66684;47.568;18.734;2023-03-01T07:38:01;100435.00;;;3.84;93.33
51759;BME280;66684;47.568;18.734;2023-03-01T07:40:26;100436.97;;;3.66;93.25
51759;BME280;66684;47.568;18.734;2023-03-01T07:42:56;100433.50;;;3.65;93.85
51759;BME280;66684;47.568;18.734;2023-03-01T07:45:22;100430.84;;;3.54;94.00
51759;BME280;66684;47.568;18.734;2023-03-01T07:47:50;100427.06;;;3.81;93.68
51759;BME280;66684;47.568;18.734;2023-03-01T07:50:16;100431.16;;;3.78;91.63
51759;BME280;66684;47.568;18.734;2023-03-01T07:52:45;100426.34;;;3.71;92.90
51759;BME280;66684;47.568;18.734;2023-03-01T07:55:11;100426.50;;;3.95;92.68
51759;BME280;66684;47.568;18.734;2023-03-01T07:57:37;100423.37;;;4.09;92.16
51759;BME280;66684;47.568;18.734;2023-03-01T08:00:03;100427.25;;;4.26;89.78
51759;BME280;66684;47.568;18.734;2023-03-01T08:02:29;100421.44;;;4.39;89.06
51759;BME280;66684;47.568;18.734;2023-03-01T08:04:55;100414.66;;;4.61;87.21
51759;BME280;66684;47.568;18.734;2023-03-01T08:07:21;100407.91;;;4.51;87.99
51759;BME280;66684;47.568;18.734;2023-03-01T08:09:47;100411.91;;;4.48;87.81
51759;BME280;66684;47.568;18.734;2023-03-01T08:12:13;100410.56;;;4.41;87.00
51759;BME280;66684;47.568;18.734;2023-03-01T08:14:39;100414.69;;;4.51;87.73
51759;BME280;66684;47.568;18.734;2023-03-01T08:17:05;100411.88;;;4.70;87.41
51759;BME280;66684;47.568;18.734;2023-03-01T08:19:31;100411.34;;;4.74;85.79
51759;BME280;66684;47.568;18.734;2023-03-01T08:21:56;100411.56;;;4.77;85.15
51759;BME280;66684;47.568;18.734;2023-03-01T08:24:23;100416.94;;;4.58;85.37
51759;BME280;66684;47.568;18.734;2023-03-01T08:26:49;100412.09;;;4.95;84.99
51759;BME280;66684;47.568;18.734;2023-03-01T08:29:15;100405.34;;;4.73;86.46
51759;BME280;66684;47.568;18.734;2023-03-01T08:31:41;100414.34;;;4.68;85.70
51759;BME280;66684;47.568;18.734;2023-03-01T08:34:10;100404.16;;;4.58;86.73
51759;BME280;66684;47.568;18.734;2023-03-01T08:36:41;100408.75;;;4.96;84.51
51759;BME280;66684;47.568;18.734;2023-03-01T08:39:09;100400.19;;;5.07;84.53
51759;BME280;66684;47.568;18.734;2023-03-01T08:41:35;100403.03;;;5.22;84.28
51759;BME280;66684;47.568;18.734;2023-03-01T08:44:02;100394.34;;;5.43;82.38
51759;BME280;66684;47.568;18.734;2023-03-01T08:46:31;100392.44;;;5.17;82.19
51759;BME280;66684;47.568;18.734;2023-03-01T08:48:57;100394.31;;;5.20;83.19
51759;BME280;66684;47.568;18.734;2023-03-01T08:51:24;100393.47;;;5.43;81.19
51759;BME280;66684;47.568;18.734;2023-03-01T08:53:50;100397.25;;;5.48;81.44
51759;BME280;66684;47.568;18.734;2023-03-01T08:56:17;100383.22;;;5.66;80.72
51759;BME280;66684;47.568;18.734;2023-03-01T08:58:45;100378.31;;;5.92;79.73
51759;BME280;66684;47.568;18.734;2023-03-01T09:01:15;100378.59;;;6.09;78.68
51759;BME280;66684;47.568;18.734;2023-03-01T09:03:42;100368.94;;;5.93;79.00
51759;BME280;66684;47.568;18.734;2023-03-01T09:06:09;100373.38;;;5.95;78.46
51759;BME280;66684;47.568;18.734;2023-03-01T09:08:43;100369.81;;;6.05;78.28
51759;BME280;66684;47.568;18.734;2023-03-01T09:11:12;100360.28;;;6.16;77.92
51759;BME280;66684;47.568;18.734;2023-03-01T09:13:38;100364.88;;;6.08;78.31
51759;BME280;66684;47.568;18.734;2023-03-01T09:16:06;100355.03;;;6.14;77.73
51759;BME280;66684;47.568;18.734;2023-03-01T09:18:33;100358.38;;;6.25;78.61
51759;BME280;66684;47.568;18.734;2023-03-01T09:21:15;100352.19;;;6.60;76.65
51759;BME280;66684;47.568;18.734;2023-03-01T09:23:44;100347.53;;;6.79;76.95
51759;BME280;66684;47.568;18.734;2023-03-01T09:26:16;100347.88;;;6.72;75.90
51759;BME280;66684;47.568;18.734;2023-03-01T09:28:45;100337.97;;;6.90;75.17
51759;BME280;66684;47.568;18.734;2023-03-01T09:31:13;100340.28;;;7.12;74.48
51759;BME280;66684;47.568;18.734;2023-03-01T09:33:41;100335.06;;;7.37;72.33
51759;BME280;66684;47.568;18.734;2023-03-01T09:36:12;100333.16;;;7.47;71.96
51759;BME280;66684;47.568;18.734;2023-03-01T09:38:38;100333.03;;;7.72;70.79
51759;BME280;66684;47.568;18.734;2023-03-01T09:44:26;100321.09;;;7.60;70.22
51759;BME280;66684;47.568;18.734;2023-03-01T09:46:53;100313.38;;;7.46;71.33
51759;BME280;66684;47.568;18.734;2023-03-01T09:49:28;100310.16;;;7.36;73.24
51759;BME280;66684;47.568;18.734;2023-03-01T09:51:59;100308.25;;;7.46;71.83
51759;BME280;66684;47.568;18.734;2023-03-01T09:54:26;100313.72;;;6.73;72.69
51759;BME280;66684;47.568;18.734;2023-03-01T09:57:14;100314.16;;;6.79;73.50
51759;BME280;66684;47.568;18.734;2023-03-01T10:02:48;100299.25;;;7.00;72.50
51759;BME280;66684;47.568;18.734;2023-03-01T10:05:34;100307.28;;;7.31;71.93
51759;BME280;66684;47.568;18.734;2023-03-01T10:10:34;100300.25;;;7.42;71.98
51759;BME280;66684;47.568;18.734;2023-03-01T10:13:27;100300.50;;;7.60;70.71
51759;BME280;66684;47.568;18.734;2023-03-01T10:16:11;100300.50;;;7.60;70.70
51759;BME280;66684;47.568;18.734;2023-03-01T10:18:38;100297.87;;;7.32;70.14
51759;BME280;66684;47.568;18.734;2023-03-01T10:21:14;100297.78;;;7.43;71.12
51759;BME280;66684;47.568;18.734;2023-03-01T10:23:42;100290.81;;;7.69;69.69
51759;BME280;66684;47.568;18.734;2023-03-01T10:29:07;100276.41;;;7.99;68.05
51759;BME280;66684;47.568;18.734;2023-03-01T10:31:49;100268.66;;;8.27;67.11
51759;BME280;66684;47.568;18.734;2023-03-01T10:34:21;100261.59;;;8.09;67.36
51759;BME280;66684;47.568;18.734;2023-03-01T10:36:51;100257.69;;;8.01;68.22
51759;BME280;66684;47.568;18.734;2023-03-01T10:39:21;100245.19;;;8.07;68.09
51759;BME280;66684;47.568;18.734;2023-03-01T10:42:05;100250.34;;;8.07;68.94
51759;BME280;66684;47.568;18.734;2023-03-01T10:50:02;100239.16;;;8.22;67.66
51759;BME280;66684;47.568;18.734;2023-03-01T10:52:40;100240.50;;;8.43;67.22
51759;BME280;66684;47.568;18.734;2023-03-01T10:57:39;100216.06;;;9.27;64.41
51759;BME280;66684;47.568;18.734;2023-03-01T11:00:20;100209.66;;;9.35;64.31
51759;BME280;66684;47.568;18.734;2023-03-01T11:03:10;100210.31;;;9.47;65.47
51759;BME280;66684;47.568;18.734;2023-03-01T11:05:50;100208.34;;;9.27;65.43
51759;BME280;66684;47.568;18.734;2023-03-01T11:08:50;100205.81;;;9.59;64.15
51759;BME280;66684;47.568;18.734;2023-03-01T11:11:33;100208.59;;;9.95;62.38
51759;BME280;66684;47.568;18.734;2023-03-01T11:14:06;100199.87;;;10.09;61.45
51759;BME280;66684;47.568;18.734;2023-03-01T11:16:38;100204.84;;;10.22;61.89
51759;BME280;66684;47.568;18.734;2023-03-01T11:22:01;100207.66;;;10.25;61.61
51759;BME280;66684;47.568;18.734;2023-03-01T11:24:41;100207.78;;;10.29;62.17
51759;BME280;66684;47.568;18.734;2023-03-01T11:29:46;100196.94;;;9.54;62.99
51759;BME280;66684;47.568;18.734;2023-03-01T11:32:18;100197.56;;;9.34;62.88
51759;BME280;66684;47.568;18.734;2023-03-01T11:34:51;100194.34;;;9.38;63.73
51759;BME280;66684;47.568;18.734;2023-03-01T11:40:29;100192.72;;;9.40;63.29
51759;BME280;66684;47.568;18.734;2023-03-01T11:43:26;100196.16;;;9.71;62.51
51759;BME280;66684;47.568;18.734;2023-03-01T11:48:48;100201.47;;;9.58;62.74
51759;BME280;66684;47.568;18.734;2023-03-01T11:51:23;100195.03;;;9.66;62.60
51759;BME280;66684;47.568;18.734;2023-03-01T11:56:32;100193.41;;;9.52;62.74
51759;BME280;66684;47.568;18.734;2023-03-01T12:04:27;100183.91;;;10.00;63.71
51759;BME280;66684;47.568;18.734;2023-03-01T12:07:01;100179.87;;;9.89;63.32
51759;BME280;66684;47.568;18.734;2023-03-01T12:12:27;100170.59;;;9.92;63.06
51759;BME280;66684;47.568;18.734;2023-03-01T12:15:01;100171.06;;;9.85;63.56
51759;BME280;66684;47.568;18.734;2023-03-01T12:20:23;100161.00;;;9.90;63.51
51759;BME280;66684;47.568;18.734;2023-03-01T12:25:45;100156.78;;;10.08;62.50
51759;BME280;66684;47.568;18.734;2023-03-01T12:28:35;100153.97;;;10.04;62.44
51759;BME280;66684;47.568;18.734;2023-03-01T12:33:57;100155.19;;;9.94;61.63
51759;BME280;66684;47.568;18.734;2023-03-01T12:36:52;100148.53;;;10.15;61.67
51759;BME280;66684;47.568;18.734;2023-03-01T12:48:03;100139.63;;;10.43;60.19
51759;BME280;66684;47.568;18.734;2023-03-01T12:50:49;100131.69;;;10.56;60.85
51759;BME280;66684;47.568;18.734;2023-03-01T12:53:23;100139.44;;;10.56;59.80
51759;BME280;66684;47.568;18.734;2023-03-01T12:55:51;100126.50;;;10.56;59.96
51759;BME280;66684;47.568;18.734;2023-03-01T12:58:24;100128.78;;;10.68;60.47
51759;BME280;66684;47.568;18.734;2023-03-01T13:06:44;100133.22;;;10.70;60.17
51759;BME280;66684;47.568;18.734;2023-03-01T13:09:38;100132.94;;;10.30;59.56
51759;BME280;66684;47.568;18.734;2023-03-01T13:15:32;100129.53;;;10.65;59.41
51759;BME280;66684;47.568;18.734;2023-03-01T13:28:45;100106.84;;;10.60;60.05
51759;BME280;66684;47.568;18.734;2023-03-01T13:33:56;100104.84;;;10.54;58.89
51759;BME280;66684;47.568;18.734;2023-03-01T13:38:55;100109.81;;;10.32;60.03
51759;BME280;66684;47.568;18.734;2023-03-01T13:44:26;100097.97;;;10.37;60.18
51759;BME280;66684;47.568;18.734;2023-03-01T13:49:52;100081.75;;;10.39;60.29
51759;BME280;66684;47.568;18.734;2023-03-01T13:55:16;100077.87;;;10.13;60.69
51759;BME280;66684;47.568;18.734;2023-03-01T13:57:48;100083.25;;;9.84;61.11
51759;BME280;66684;47.568;18.734;2023-03-01T14:03:21;100077.56;;;9.57;63.26
51759;BME280;66684;47.568;18.734;2023-03-01T14:06:09;100064.06;;;9.79;62.90
51759;BME280;66684;47.568;18.734;2023-03-01T14:08:38;100069.34;;;9.98;61.86
51759;BME280;66684;47.568;18.734;2023-03-01T14:19:23;100060.00;;;10.00;61.62
51759;BME280;66684;47.568;18.734;2023-03-01T14:24:35;100054.97;;;10.03;61.45
51759;BME280;66684;47.568;18.734;2023-03-01T14:27:03;100043.00;;;10.05;61.27
51759;BME280;66684;47.568;18.734;2023-03-01T14:29:36;100032.53;;;10.02;61.74
51759;BME280;66684;47.568;18.734;2023-03-01T14:34:35;100040.63;;;9.92;63.04
51759;BME280;66684;47.568;18.734;2023-03-01T14:37:33;100040.50;;;9.89;62.23
51759;BME280;66684;47.568;18.734;2023-03-01T14:40:02;100033.28;;;9.99;61.82
51759;BME280;66684;47.568;18.734;2023-03-01T14:42:35;100024.94;;;10.05;62.22
51759;BME280;66684;47.568;18.734;2023-03-01T14:45:03;100023.84;;;10.00;62.09
51759;BME280;66684;47.568;18.734;2023-03-01T14:47:32;100016.75;;;9.96;61.64
51759;BME280;66684;47.568;18.734;2023-03-01T14:50:10;100026.47;;;9.84;62.07
51759;BME280;66684;47.568;18.734;2023-03-01T14:52:42;100027.66;;;9.90;61.97
51759;BME280;66684;47.568;18.734;2023-03-01T14:55:19;100014.69;;;9.89;62.92
51759;BME280;66684;47.568;18.734;2023-03-01T14:57:50;100018.28;;;9.75;63.09
51759;BME280;66684;47.568;18.734;2023-03-01T15:00:22;100014.06;;;9.77;63.03
51759;BME280;66684;47.568;18.734;2023-03-01T15:02:50;100008.72;;;9.56;63.69
51759;BME280;66684;47.568;18.734;2023-03-01T15:05:22;100011.06;;;9.51;64.25
51759;BME280;66684;47.568;18.734;2023-03-01T15:07:49;100007.09;;;9.58;63.29
51759;BME280;66684;47.568;18.734;2023-03-01T15:10:22;100012.31;;;9.59;64.05